createdAt,value
2023-01-01T00:01:19.989Z,14.32
2023-01-01T00:04:10.322Z,14.46
2023-01-01T00:07:55.354Z,14.52
2023-01-01T00:11:34.322Z,14.45
2023-01-01T00:17:42.562Z,14.40
2023-01-01T00:20:35.671Z,14.34
2023-01-01T00:23:25.283Z,14.10
2023-01-01T00:26:43.609Z,14.25
2023-01-01T00:29:33.394Z,14.24
2023-01-01T00:32:38.413Z,14.20
2023-01-01T00:35:21.773Z,14.13
2023-01-01T00:38:08.879Z,14.11
2023-01-01T00:40:58.811Z,14.18
2023-01-01T00:43:27.638Z,13.94
2023-01-01T00:45:59.076Z,14.20
2023-01-01T00:48:49.269Z,14.08
2023-01-01T00:51:39.333Z,14.31
2023-01-01T00:54:14.739Z,14.24
2023-01-01T00:57:39.287Z,14.36
2023-01-01T01:00:24.771Z,14.31
2023-01-01T01:03:35.058Z,14.29
2023-01-01T01:06:13.733Z,14.36
2023-01-01T01:08:43.601Z,14.34
2023-01-01T01:11:21.137Z,14.08
2023-01-01T01:13:51.262Z,14.05
2023-01-01T01:16:22.121Z,14.28
2023-01-01T01:19:20.405Z,14.23
2023-01-01T01:22:01.114Z,14.24
2023-01-01T01:24:41.633Z,14.23
2023-01-01T01:27:14.664Z,14.21
2023-01-01T01:29:43.280Z,14.21
2023-01-01T01:32:17.072Z,14.21
2023-01-01T01:34:55.541Z,14.12
2023-01-01T01:37:30.958Z,14.12
2023-01-01T01:40:00.398Z,14.04
2023-01-01T01:42:40.733Z,13.99
2023-01-01T01:45:21.196Z,13.77
2023-01-01T01:47:56.644Z,13.71
2023-01-01T01:50:47.884Z,13.83
2023-01-01T01:53:22.711Z,13.82
2023-01-01T01:55:55.287Z,13.85
2023-01-01T01:58:29.133Z,13.75
2023-01-01T02:01:02.847Z,13.71
2023-01-01T02:03:36.440Z,13.78
2023-01-01T02:06:13.699Z,13.87
2023-01-01T02:08:42.375Z,13.65
2023-01-01T02:11:11.023Z,13.63
2023-01-01T02:13:40.530Z,13.64
2023-01-01T02:16:14.677Z,13.81
2023-01-01T02:18:47.426Z,13.83
2023-01-01T02:21:20.304Z,13.88
2023-01-01T02:24:03.429Z,13.66
2023-01-01T02:26:43.324Z,13.81
2023-01-01T02:29:36.759Z,13.90
2023-01-01T02:32:10.528Z,13.82
2023-01-01T02:34:41.663Z,13.71
2023-01-01T02:37:13.881Z,13.89
2023-01-01T02:39:47.943Z,13.84
2023-01-01T02:42:16.524Z,13.66
2023-01-01T02:44:49.841Z,13.81
2023-01-01T02:47:19.980Z,13.82
2023-01-01T02:49:52.833Z,13.53
2023-01-01T02:52:44.017Z,13.71
2023-01-01T02:55:22.044Z,13.67
2023-01-01T02:57:52.906Z,13.66
2023-01-01T03:00:27.887Z,13.59
2023-01-01T03:03:11.723Z,13.58
2023-01-01T03:05:59.206Z,13.45
2023-01-01T03:08:35.814Z,13.38
2023-01-01T03:11:05.681Z,13.59
2023-01-01T03:13:38.719Z,13.49
2023-01-01T03:16:11.267Z,13.38
2023-01-01T03:18:42.999Z,13.43
2023-01-01T03:23:49.942Z,13.49
2023-01-01T03:26:19.405Z,13.36
2023-01-01T03:28:48.748Z,13.29
2023-01-01T03:31:20.500Z,13.43
2023-01-01T03:33:50.032Z,13.32
2023-01-01T03:36:31.914Z,13.35
2023-01-01T03:39:02.578Z,13.48
2023-01-01T03:41:34.300Z,13.49
2023-01-01T03:44:12.005Z,13.37
2023-01-01T03:46:42.388Z,13.51
2023-01-01T03:49:25.173Z,13.53
2023-01-01T03:52:03.238Z,13.44
2023-01-01T03:54:42.291Z,13.32
2023-01-01T03:57:17.346Z,13.52
2023-01-01T03:59:51.419Z,13.48
2023-01-01T04:02:22.659Z,13.44
2023-01-01T04:04:51.083Z,13.59
2023-01-01T04:07:19.386Z,13.58
2023-01-01T04:09:50.296Z,13.60
2023-01-01T04:12:18.802Z,13.53
2023-01-01T04:14:47.313Z,13.39
2023-01-01T04:17:15.454Z,13.36
2023-01-01T04:19:50.059Z,13.07
2023-01-01T04:22:23.751Z,13.20
2023-01-01T04:24:55.700Z,13.27
2023-01-01T04:27:26.776Z,13.24
2023-01-01T04:29:54.933Z,13.08
2023-01-01T04:32:23.553Z,13.10
2023-01-01T04:34:55.344Z,13.20
2023-01-01T04:37:23.803Z,13.23
2023-01-01T04:39:51.988Z,13.25
2023-01-01T04:42:20.150Z,13.18
2023-01-01T04:44:49.537Z,13.25
2023-01-01T04:47:17.827Z,13.12
2023-01-01T04:49:45.952Z,13.17
2023-01-01T04:52:15.473Z,13.25
2023-01-01T04:54:43.713Z,13.34
2023-01-01T04:57:11.887Z,13.30
2023-01-01T04:59:40.195Z,13.28
2023-01-01T05:02:08.481Z,13.11
2023-01-01T05:04:36.821Z,13.34
2023-01-01T05:07:05.400Z,13.29
2023-01-01T05:09:34.960Z,13.14
2023-01-01T05:12:03.159Z,13.34
2023-01-01T05:14:31.228Z,13.23
2023-01-01T05:16:59.437Z,13.36
2023-01-01T05:19:29.990Z,13.43
2023-01-01T05:21:58.207Z,13.42
2023-01-01T05:24:26.509Z,13.35
2023-01-01T05:26:57.023Z,13.48
2023-01-01T05:29:25.381Z,13.24
2023-01-01T05:31:53.533Z,13.43
2023-01-01T05:34:21.764Z,13.35
2023-01-01T05:36:49.940Z,13.48
2023-01-01T05:39:18.132Z,13.35
2023-01-01T05:41:46.519Z,13.54
2023-01-01T05:44:16.719Z,13.37
2023-01-01T05:46:44.999Z,13.54
2023-01-01T05:49:13.501Z,13.47
2023-01-01T05:56:36.813Z,13.57
2023-01-01T05:59:08.213Z,13.40
2023-01-01T06:01:45.176Z,13.54
2023-01-01T06:04:14.986Z,13.46
2023-01-01T06:06:43.552Z,13.58
2023-01-01T06:09:13.583Z,13.37
2023-01-01T06:11:41.957Z,13.57
2023-01-01T06:14:12.944Z,13.40
2023-01-01T06:16:45.250Z,13.30
2023-01-01T06:19:13.473Z,13.28
2023-01-01T06:21:44.525Z,13.39
2023-01-01T06:24:12.928Z,13.28
2023-01-01T06:26:41.212Z,13.24
2023-01-01T06:29:09.777Z,13.19
2023-01-01T06:31:40.874Z,13.19
2023-01-01T06:34:12.712Z,13.26
2023-01-01T06:36:41.098Z,13.32
2023-01-01T06:39:09.519Z,13.37
2023-01-01T06:41:38.093Z,13.33
2023-01-01T06:44:06.586Z,13.33
2023-01-01T06:46:35.323Z,13.40
2023-01-01T06:49:04.824Z,13.26
2023-01-01T06:51:35.394Z,13.30
2023-01-01T06:54:04.105Z,13.33
2023-01-01T06:56:32.353Z,13.12
2023-01-01T06:59:00.923Z,13.31
2023-01-01T07:01:30.338Z,13.15
2023-01-01T07:03:59.644Z,13.08
2023-01-01T07:06:30.981Z,13.34
2023-01-01T07:09:00.665Z,13.27
2023-01-01T07:11:29.520Z,13.21
2023-01-01T07:13:57.735Z,13.13
2023-01-01T07:16:29.019Z,13.27
2023-01-01T07:18:59.695Z,13.30
2023-01-01T07:21:30.237Z,13.18
2023-01-01T07:24:00.786Z,13.10
2023-01-01T07:26:29.757Z,13.25
2023-01-01T07:29:06.894Z,13.22
2023-01-01T07:31:36.598Z,13.21
2023-01-01T07:34:04.903Z,13.18
2023-01-01T07:36:33.385Z,13.05
2023-01-01T07:39:03.522Z,13.03
2023-01-01T07:41:31.710Z,13.14
2023-01-01T07:44:00.461Z,12.96
2023-01-01T07:46:28.854Z,13.22
2023-01-01T07:48:57.758Z,13.00
2023-01-01T07:51:26.075Z,13.19
2023-01-01T07:53:54.469Z,13.04
2023-01-01T07:56:24.976Z,13.03
2023-01-01T07:58:53.428Z,13.20
2023-01-01T08:01:23.218Z,13.22
2023-01-01T08:03:55.181Z,13.19
2023-01-01T08:06:25.675Z,13.23
2023-01-01T08:08:55.561Z,13.17
2023-01-01T08:11:25.354Z,13.06
2023-01-01T08:13:57.687Z,13.22
2023-01-01T08:16:26.279Z,13.24
2023-01-01T08:18:57.018Z,13.12
2023-01-01T08:21:25.345Z,13.02
2023-01-01T08:23:54.765Z,13.10
2023-01-01T08:26:30.621Z,13.30
2023-01-01T08:29:04.537Z,13.29
2023-01-01T08:31:36.056Z,13.07
2023-01-01T08:34:04.814Z,13.29
2023-01-01T08:36:33.199Z,13.08
2023-01-01T08:39:01.740Z,13.17
2023-01-01T08:41:33.458Z,13.10
2023-01-01T08:44:04.772Z,13.18
2023-01-01T08:46:33.198Z,13.31
2023-01-01T08:49:01.592Z,13.16
2023-01-01T08:51:31.359Z,13.21
2023-01-01T08:53:59.796Z,13.34
2023-01-01T08:56:28.374Z,13.32
2023-01-01T08:59:03.913Z,13.23
2023-01-01T09:01:35.923Z,13.44
2023-01-01T09:04:13.579Z,13.40
2023-01-01T09:06:43.903Z,13.51
2023-01-01T09:09:12.077Z,13.34
2023-01-01T09:11:40.203Z,13.43
2023-01-01T09:14:09.956Z,13.39
2023-01-01T09:16:43.880Z,13.65
2023-01-01T09:19:14.384Z,13.58
2023-01-01T09:21:42.470Z,13.63
2023-01-01T09:24:13.984Z,13.94
2023-01-01T09:26:44.685Z,14.00
2023-01-01T09:29:18.643Z,13.95
2023-01-01T09:31:47.445Z,14.18
2023-01-01T09:34:19.279Z,14.24
2023-01-01T09:36:47.798Z,14.28
2023-01-01T09:39:19.782Z,14.42
2023-01-01T09:41:57.470Z,14.51
2023-01-01T09:44:50.304Z,14.37
2023-01-01T09:47:24.258Z,14.52
2023-01-01T09:49:52.611Z,14.60
2023-01-01T09:52:20.921Z,14.61
2023-01-01T09:54:51.674Z,14.48
2023-01-01T09:57:20.608Z,14.64
2023-01-01T09:59:50.953Z,14.60
2023-01-01T10:02:31.508Z,14.58
2023-01-01T10:05:04.505Z,14.73
2023-01-01T10:07:38.636Z,14.68
2023-01-01T10:10:16.701Z,14.79
2023-01-01T10:12:48.854Z,14.71
2023-01-01T10:15:22.837Z,14.77
2023-01-01T10:17:58.165Z,14.75
2023-01-01T10:20:49.535Z,14.82
2023-01-01T10:23:23.003Z,14.97
2023-01-01T10:25:54.461Z,15.10
2023-01-01T10:28:28.577Z,14.89
2023-01-01T10:31:16.598Z,15.13
2023-01-01T10:33:45.885Z,14.96
2023-01-01T10:36:19.320Z,15.07
2023-01-01T10:38:55.427Z,15.21
2023-01-01T10:41:30.024Z,15.22
2023-01-01T10:43:58.891Z,15.26
2023-01-01T10:46:32.447Z,15.24
2023-01-01T10:49:11.085Z,15.23
2023-01-01T10:51:44.213Z,15.10
2023-01-01T10:54:32.135Z,15.12
2023-01-01T10:57:00.694Z,15.34
2023-01-01T10:59:37.223Z,15.25
2023-01-01T11:02:22.377Z,15.33
2023-01-01T11:04:51.143Z,15.37
2023-01-01T11:07:26.744Z,15.32
2023-01-01T11:10:11.795Z,15.42
2023-01-01T11:15:41.217Z,15.43
2023-01-01T11:18:18.500Z,15.34
2023-01-01T11:20:57.716Z,15.53
2023-01-01T11:23:31.195Z,15.35
2023-01-01T11:26:05.710Z,15.48
2023-01-01T11:28:34.612Z,15.43
2023-01-01T11:31:20.567Z,15.43
2023-01-01T11:34:02.658Z,15.45
2023-01-01T11:36:32.755Z,15.52
2023-01-01T11:39:15.403Z,15.50
2023-01-01T11:41:44.788Z,15.61
2023-01-01T11:44:26.827Z,15.55
2023-01-01T11:46:55.438Z,15.43
2023-01-01T11:49:31.956Z,15.63
2023-01-01T11:52:07.918Z,15.47
2023-01-01T11:54:48.803Z,15.57
2023-01-01T11:57:19.693Z,15.57
2023-01-01T11:59:53.725Z,15.56
2023-01-01T12:02:30.552Z,15.66
2023-01-01T12:05:06.359Z,15.54
2023-01-01T12:07:47.943Z,15.60
2023-01-01T12:10:24.139Z,15.69
2023-01-01T12:12:59.309Z,15.76
2023-01-01T12:15:35.233Z,15.66
2023-01-01T12:18:09.361Z,15.56
2023-01-01T12:20:44.182Z,15.60
2023-01-01T12:23:17.593Z,15.75
2023-01-01T12:26:00.376Z,15.72
2023-01-01T12:28:37.591Z,15.67
2023-01-01T12:31:09.757Z,15.77
2023-01-01T12:34:00.976Z,15.72
2023-01-01T12:36:37.109Z,15.72
2023-01-01T12:39:44.546Z,15.83
2023-01-01T12:42:17.693Z,15.74
2023-01-01T12:44:55.701Z,15.96
2023-01-01T12:47:40.351Z,15.97
2023-01-01T12:50:20.298Z,15.80
2023-01-01T12:53:14.431Z,16.13
2023-01-01T12:56:11.723Z,16.18
2023-01-01T12:58:42.004Z,16.19
2023-01-01T13:01:16.418Z,16.08
2023-01-01T13:03:53.094Z,16.19
2023-01-01T13:06:31.087Z,16.11
2023-01-01T13:09:07.251Z,16.20
2023-01-01T13:11:39.787Z,16.12
2023-01-01T13:14:14.347Z,16.25
2023-01-01T13:16:43.307Z,16.28
2023-01-01T13:19:25.701Z,16.26
2023-01-01T13:21:56.346Z,16.18
2023-01-01T13:24:35.569Z,16.20
2023-01-01T13:27:10.759Z,16.40
2023-01-01T13:29:47.496Z,16.35
2023-01-01T13:32:39.675Z,16.38
2023-01-01T13:35:18.778Z,16.36
2023-01-01T13:38:30.082Z,16.32
2023-01-01T13:41:02.820Z,16.28
2023-01-01T13:43:31.860Z,16.25
2023-01-01T13:46:17.297Z,16.23
2023-01-01T13:49:18.010Z,16.26
2023-01-01T13:52:21.943Z,16.02
2023-01-01T13:55:00.925Z,16.18
2023-01-01T13:57:42.156Z,16.14
2023-01-01T14:00:51.826Z,16.19
2023-01-01T14:03:27.863Z,16.18
2023-01-01T14:05:57.116Z,16.19
2023-01-01T14:08:35.835Z,16.13
2023-01-01T14:11:19.526Z,15.98
2023-01-01T14:13:49.394Z,16.16
2023-01-01T14:16:18.222Z,16.01
2023-01-01T14:18:53.195Z,16.13
2023-01-01T14:21:33.828Z,16.13
2023-01-01T14:24:13.099Z,16.12
2023-01-01T14:26:41.671Z,16.10
2023-01-01T14:29:25.708Z,16.07
2023-01-01T14:31:56.423Z,16.07
2023-01-01T14:34:28.072Z,16.02
2023-01-01T14:36:57.278Z,16.10
2023-01-01T14:39:29.495Z,16.00
2023-01-01T14:42:00.580Z,15.99
2023-01-01T14:44:44.390Z,15.97
2023-01-01T14:47:18.783Z,15.97
2023-01-01T14:49:48.337Z,16.03
2023-01-01T14:52:22.644Z,16.02
2023-01-01T14:54:57.045Z,15.99
2023-01-01T14:57:34.670Z,15.99
2023-01-01T15:00:06.050Z,15.77
2023-01-01T15:02:38.859Z,15.74
2023-01-01T15:05:22.553Z,15.75
2023-01-01T15:07:58.431Z,15.85
2023-01-01T15:10:33.084Z,15.73
2023-01-01T15:13:12.078Z,15.74
2023-01-01T15:15:45.611Z,15.71
2023-01-01T15:18:38.957Z,15.63
2023-01-01T15:21:09.265Z,15.30
2023-01-01T15:23:37.468Z,15.17
2023-01-01T15:26:08.981Z,14.95
2023-01-01T15:28:39.575Z,14.86
2023-01-01T15:31:49.191Z,14.92
2023-01-01T15:34:31.540Z,14.85
2023-01-01T15:37:09.565Z,14.80
2023-01-01T15:39:51.767Z,14.71
2023-01-01T15:42:47.324Z,14.68
2023-01-01T15:45:20.820Z,14.60
2023-01-01T15:47:55.181Z,14.74
2023-01-01T15:50:33.503Z,14.77
2023-01-01T15:53:09.577Z,14.77
2023-01-01T15:55:43.988Z,14.62
2023-01-01T15:58:26.125Z,14.51
2023-01-01T16:01:02.209Z,14.73
2023-01-01T16:03:35.233Z,14.73
2023-01-01T16:06:17.446Z,14.73
2023-01-01T16:09:04.700Z,14.68
2023-01-01T16:11:45.985Z,14.67
2023-01-01T16:14:23.986Z,14.67
2023-01-01T16:17:05.479Z,14.62
2023-01-01T16:19:44.913Z,14.47
2023-01-01T16:22:23.860Z,14.37
2023-01-01T16:24:58.712Z,14.48
2023-01-01T16:27:27.587Z,14.50
2023-01-01T16:30:00.771Z,14.29
2023-01-01T16:32:31.332Z,14.45
2023-01-01T16:35:11.615Z,14.43
2023-01-01T16:37:42.254Z,14.38
2023-01-01T16:40:12.266Z,14.36
2023-01-01T16:42:40.606Z,14.25
2023-01-01T16:45:18.715Z,14.20
2023-01-01T16:47:47.711Z,14.30
2023-01-01T16:50:16.438Z,14.33
2023-01-01T16:52:48.135Z,14.30
2023-01-01T16:55:16.605Z,14.24
2023-01-01T16:57:50.279Z,14.37
2023-01-01T17:00:20.313Z,14.26
2023-01-01T17:03:00.440Z,14.31
2023-01-01T17:05:32.378Z,14.24
2023-01-01T17:08:05.292Z,14.28
2023-01-01T17:10:37.107Z,14.31
2023-01-01T17:13:08.284Z,14.31
2023-01-01T17:15:39.677Z,14.33
2023-01-01T17:18:15.746Z,14.29
2023-01-01T17:20:47.246Z,14.34
2023-01-01T17:23:17.475Z,14.18
2023-01-01T17:25:50.283Z,14.20
2023-01-01T17:28:22.653Z,14.16
2023-01-01T17:30:51.139Z,14.25
2023-01-01T17:33:25.353Z,14.05
2023-01-01T17:35:54.468Z,14.28
2023-01-01T17:38:25.056Z,14.24
2023-01-01T17:41:02.729Z,14.23
2023-01-01T17:43:38.956Z,14.24
2023-01-01T17:46:24.235Z,14.16
2023-01-01T17:49:12.977Z,14.19
2023-01-01T17:52:06.841Z,14.25
2023-01-01T17:54:53.457Z,14.14
2023-01-01T17:57:32.535Z,14.09
2023-01-01T18:00:10.356Z,14.23
2023-01-01T18:02:43.937Z,14.10
2023-01-01T18:05:25.588Z,14.23
2023-01-01T18:08:06.044Z,14.23
2023-01-01T18:11:02.590Z,14.12
2023-01-01T18:13:35.312Z,14.15
2023-01-01T18:16:23.328Z,14.26
2023-01-01T18:19:30.194Z,14.15
2023-01-01T18:21:58.869Z,14.08
2023-01-01T18:24:54.958Z,14.25
2023-01-01T18:27:27.473Z,14.18
2023-01-01T18:30:00.791Z,14.12
2023-01-01T18:32:36.779Z,14.12
2023-01-01T18:35:06.912Z,13.93
2023-01-01T18:37:40.591Z,14.14
2023-01-01T18:40:24.565Z,14.00
2023-01-01T18:43:19.703Z,14.03
2023-01-01T18:45:58.399Z,14.08
2023-01-01T18:48:57.036Z,14.04
2023-01-01T18:51:34.848Z,14.11
2023-01-01T18:54:14.022Z,14.11
2023-01-01T18:57:12.636Z,14.11
2023-01-01T19:00:14.300Z,14.04
2023-01-01T19:03:23.160Z,13.87
2023-01-01T19:05:54.311Z,13.86
2023-01-01T19:08:38.192Z,13.90
2023-01-01T19:11:14.526Z,13.89
2023-01-01T19:13:46.282Z,13.88
2023-01-01T19:16:26.476Z,13.77
2023-01-01T19:18:55.079Z,13.81
2023-01-01T19:21:27.158Z,13.83
2023-01-01T19:24:07.161Z,13.66
2023-01-01T19:27:00.293Z,13.75
2023-01-01T19:29:47.766Z,13.71
2023-01-01T19:32:21.691Z,13.64
2023-01-01T19:34:51.213Z,13.67
2023-01-01T19:37:29.188Z,13.54
2023-01-01T19:40:06.700Z,13.48
2023-01-01T19:42:37.313Z,13.52
2023-01-01T19:45:08.575Z,13.46
2023-01-01T19:47:54.343Z,13.43
2023-01-01T19:50:33.203Z,13.46
2023-01-01T19:53:07.906Z,13.40
2023-01-01T19:55:40.400Z,13.39
2023-01-01T19:58:14.499Z,13.24
2023-01-01T20:00:54.716Z,13.38
2023-01-01T20:03:53.470Z,13.38
2023-01-01T20:06:24.625Z,13.26
2023-01-01T20:08:56.233Z,13.35
2023-01-01T20:11:28.207Z,13.23
2023-01-01T20:14:04.140Z,13.31
2023-01-01T20:16:40.003Z,13.28
2023-01-01T20:19:15.450Z,13.32
2023-01-01T20:22:06.720Z,13.25
2023-01-01T20:24:44.595Z,13.18
2023-01-01T20:27:23.439Z,13.13
2023-01-01T20:29:58.139Z,13.17
2023-01-01T20:32:44.024Z,13.18
2023-01-01T20:35:16.080Z,13.08
2023-01-01T20:37:46.277Z,13.13
2023-01-01T20:40:24.334Z,13.14
2023-01-01T20:43:08.660Z,13.25
2023-01-01T20:45:49.046Z,13.19
2023-01-01T20:53:26.110Z,13.37
2023-01-01T20:56:37.850Z,13.07
2023-01-01T21:04:58.059Z,13.16
2023-01-01T21:06:53.305Z,13.09
2023-01-01T21:09:26.526Z,12.97
2023-01-01T21:12:36.508Z,12.83
2023-01-01T21:15:23.761Z,13.00
2023-01-01T21:21:09.685Z,13.05
2023-01-01T21:24:10.047Z,12.98
2023-01-01T21:30:55.937Z,13.07
2023-01-01T21:34:02.125Z,13.05
2023-01-01T21:36:43.948Z,13.10
2023-01-01T21:39:46.620Z,13.12
2023-01-01T21:42:24.008Z,12.93
2023-01-01T21:44:55.013Z,12.95
2023-01-01T21:51:51.711Z,13.00
2023-01-01T21:54:34.683Z,13.24
2023-01-01T21:57:51.013Z,13.23
2023-01-01T22:01:20.840Z,13.23
2023-01-01T22:04:21.764Z,13.33
2023-01-01T22:07:00.669Z,13.14
2023-01-01T22:09:44.630Z,13.24
2023-01-01T22:12:24.339Z,13.31
2023-01-01T22:14:57.557Z,13.12
2023-01-01T22:17:42.959Z,13.39
2023-01-01T22:26:42.302Z,13.12
2023-01-01T22:32:28.072Z,13.19
2023-01-01T22:35:20.553Z,13.39
2023-01-01T22:51:58.890Z,13.19
2023-01-01T22:54:28.171Z,13.04
2023-01-01T22:57:48.675Z,13.34
2023-01-01T23:17:29.241Z,13.11
2023-01-01T23:20:42.998Z,13.06
2023-01-01T23:30:42.761Z,13.33
2023-01-01T23:38:12.329Z,13.51
2023-01-01T23:41:25.540Z,13.59
2023-01-01T23:47:29.719Z,13.67
2023-01-01T23:50:29.657Z,13.51
2023-01-01T23:53:55.992Z,13.60
2023-01-01T23:57:27.065Z,13.68
